createdAt,value
2022-10-22T00:01:57.216Z,12.60
2022-10-22T00:07:32.623Z,12.50
2022-10-22T00:10:21.087Z,12.50
2022-10-22T00:13:10.163Z,12.60
2022-10-22T00:15:58.879Z,13.40
2022-10-22T00:18:50.023Z,12.50
2022-10-22T00:21:37.803Z,12.50
2022-10-22T00:24:25.761Z,12.40
2022-10-22T00:27:14.576Z,12.80
2022-10-22T00:30:04.525Z,12.60
2022-10-22T00:32:52.207Z,12.70
2022-10-22T00:35:40.270Z,12.50
2022-10-22T00:38:29.100Z,12.50
2022-10-22T00:41:17.052Z,12.50
2022-10-22T00:44:06.790Z,12.40
2022-10-22T00:46:56.972Z,13.30
2022-10-22T00:49:45.342Z,12.40
2022-10-22T00:52:33.915Z,12.50
2022-10-22T00:55:23.671Z,12.50
2022-10-22T00:58:11.760Z,12.50
2022-10-22T01:01:00.196Z,12.50
2022-10-22T01:03:57.207Z,12.60
2022-10-22T01:06:46.164Z,12.50
2022-10-22T01:09:38.865Z,12.50
2022-10-22T01:12:32.182Z,12.50
2022-10-22T01:15:24.835Z,12.50
2022-10-22T01:18:17.101Z,12.50
2022-10-22T01:21:12.968Z,12.50
2022-10-22T01:24:18.390Z,12.40
2022-10-22T01:27:24.503Z,12.50
2022-10-22T01:30:15.037Z,14.10
2022-10-22T01:33:04.586Z,12.30
2022-10-22T01:35:53.958Z,12.50
2022-10-22T01:38:43.033Z,12.50
2022-10-22T01:41:30.854Z,12.60
2022-10-22T01:44:26.072Z,12.60
2022-10-22T01:47:18.501Z,12.70
2022-10-22T01:50:16.760Z,12.40
2022-10-22T01:53:12.370Z,12.90
2022-10-22T01:56:09.915Z,13.00
2022-10-22T01:59:02.620Z,12.80
2022-10-22T02:01:56.813Z,12.50
2022-10-22T02:04:50.895Z,12.60
2022-10-22T02:07:41.599Z,13.00
2022-10-22T02:10:32.903Z,12.80
2022-10-22T02:13:29.177Z,13.00
2022-10-22T02:16:19.527Z,12.60
2022-10-22T02:19:09.344Z,12.70
2022-10-22T02:21:58.874Z,12.70
2022-10-22T02:24:46.661Z,12.70
2022-10-22T02:27:37.995Z,12.70
2022-10-22T02:30:25.575Z,12.50
2022-10-22T02:33:16.760Z,12.70
2022-10-22T02:36:06.343Z,12.70
2022-10-22T02:38:56.074Z,12.80
2022-10-22T02:41:43.915Z,13.00
2022-10-22T02:44:31.643Z,12.80
2022-10-22T02:47:21.499Z,12.80
2022-10-22T02:50:10.552Z,12.70
2022-10-22T02:52:58.511Z,12.80
2022-10-22T02:55:48.049Z,12.40
2022-10-22T02:58:36.125Z,12.70
2022-10-22T03:01:24.535Z,13.20
2022-10-22T03:04:24.696Z,12.60
2022-10-22T03:07:13.170Z,12.60
2022-10-22T03:10:07.680Z,11.90
2022-10-22T03:12:57.483Z,12.50
2022-10-22T03:15:45.299Z,12.70
2022-10-22T03:18:32.905Z,12.70
2022-10-22T03:21:25.693Z,13.10
2022-10-22T03:24:14.828Z,12.80
2022-10-22T03:27:04.663Z,12.70
2022-10-22T03:29:53.935Z,12.70
2022-10-22T03:32:42.892Z,11.90
2022-10-22T03:35:30.721Z,12.60
2022-10-22T03:38:18.883Z,11.40
2022-10-22T03:41:06.611Z,12.60
2022-10-22T03:43:55.201Z,14.80
2022-10-22T03:46:45.162Z,12.50
2022-10-22T03:49:32.809Z,12.50
2022-10-22T03:52:20.651Z,12.50
2022-10-22T03:55:09.897Z,12.40
2022-10-22T03:57:57.952Z,12.60
2022-10-22T04:00:46.292Z,12.90
2022-10-22T04:03:36.754Z,12.60
2022-10-22T04:06:24.564Z,13.20
2022-10-22T04:09:13.697Z,11.50
2022-10-22T04:12:04.224Z,12.80
2022-10-22T04:14:52.595Z,12.70
2022-10-22T04:17:40.315Z,12.80
2022-10-22T04:20:29.491Z,13.30
2022-10-22T04:23:17.250Z,12.90
2022-10-22T04:26:05.750Z,12.90
2022-10-22T04:28:54.367Z,13.00
2022-10-22T04:31:42.464Z,13.10
2022-10-22T04:34:30.170Z,13.00
2022-10-22T04:37:22.324Z,11.20
2022-10-22T04:40:11.172Z,13.00
2022-10-22T04:42:58.931Z,13.00
2022-10-22T04:45:46.967Z,14.00
2022-10-22T04:48:34.808Z,13.00
2022-10-22T04:51:23.127Z,12.90
2022-10-22T04:54:14.853Z,12.90
2022-10-22T04:57:02.446Z,13.00
2022-10-22T04:59:50.394Z,13.00
2022-10-22T05:02:45.611Z,13.10
2022-10-22T05:05:35.856Z,13.00
2022-10-22T05:08:25.217Z,12.90
2022-10-22T05:11:16.468Z,13.50
2022-10-22T05:14:05.098Z,13.10
2022-10-22T05:16:53.163Z,13.10
2022-10-22T05:19:41.123Z,12.80
2022-10-22T05:22:28.718Z,13.20
2022-10-22T05:25:16.358Z,13.30
2022-10-22T05:28:09.064Z,13.30
2022-10-22T05:30:57.624Z,13.40
2022-10-22T05:33:45.682Z,14.30
2022-10-22T05:36:33.218Z,13.50
2022-10-22T05:39:21.385Z,13.30
2022-10-22T05:42:08.963Z,13.50
2022-10-22T05:44:59.282Z,13.40
2022-10-22T05:47:47.493Z,14.20
2022-10-22T05:50:37.046Z,13.10
2022-10-22T05:53:24.796Z,13.40
2022-10-22T05:56:13.594Z,13.90
2022-10-22T06:01:52.538Z,15.40
2022-10-22T06:04:40.723Z,14.30
2022-10-22T06:07:28.231Z,13.50
2022-10-22T06:10:16.293Z,13.50
2022-10-22T06:13:08.180Z,13.60
2022-10-22T06:15:56.982Z,13.60
2022-10-22T06:18:46.015Z,13.70
2022-10-22T06:21:34.351Z,13.40
2022-10-22T06:24:24.899Z,13.70
2022-10-22T06:27:12.422Z,13.80
2022-10-22T06:30:00.694Z,13.70
2022-10-22T06:32:48.960Z,13.80
2022-10-22T06:35:38.722Z,13.80
2022-10-22T06:38:26.499Z,15.70
2022-10-22T06:41:15.607Z,13.90
2022-10-22T06:44:03.887Z,13.90
2022-10-22T06:46:53.953Z,13.90
2022-10-22T06:49:45.316Z,14.00
2022-10-22T06:52:34.352Z,14.10
2022-10-22T06:55:22.739Z,16.50
2022-10-22T06:58:11.438Z,14.10
2022-10-22T07:01:02.650Z,14.10
2022-10-22T07:03:51.663Z,12.50
2022-10-22T07:06:43.360Z,14.10
2022-10-22T07:09:35.570Z,14.00
2022-10-22T07:12:23.026Z,14.00
2022-10-22T07:15:11.336Z,14.20
2022-10-22T07:17:59.822Z,16.30
2022-10-22T07:20:48.571Z,14.60
2022-10-22T07:23:36.338Z,14.00
2022-10-22T07:26:25.711Z,14.90
2022-10-22T07:29:15.540Z,14.50
2022-10-22T07:32:03.160Z,14.60
2022-10-22T07:34:51.194Z,14.70
2022-10-22T07:37:40.087Z,14.70
2022-10-22T07:40:28.487Z,14.20
2022-10-22T07:43:18.239Z,14.70
2022-10-22T07:46:08.603Z,15.10
2022-10-22T07:48:59.338Z,14.60
2022-10-22T07:51:47.671Z,14.40
2022-10-22T07:54:36.293Z,13.70
2022-10-22T07:57:23.449Z,14.80
2022-10-22T08:00:13.878Z,15.10
2022-10-22T08:03:01.683Z,14.90
2022-10-22T08:05:49.727Z,15.10
2022-10-22T08:08:41.194Z,14.40
2022-10-22T08:11:33.691Z,15.20
2022-10-22T08:14:22.622Z,15.60
2022-10-22T08:17:11.924Z,15.10
2022-10-22T08:20:04.379Z,15.40
2022-10-22T08:22:54.184Z,15.60
2022-10-22T08:25:42.501Z,19.70
2022-10-22T08:28:31.348Z,15.60
2022-10-22T08:31:19.756Z,15.70
2022-10-22T08:34:09.721Z,15.70
2022-10-22T08:36:57.368Z,13.90
2022-10-22T08:39:49.215Z,15.50
2022-10-22T08:42:46.591Z,15.80
2022-10-22T08:45:37.335Z,16.00
2022-10-22T08:48:34.234Z,16.10
2022-10-22T08:51:24.776Z,16.00
2022-10-22T08:54:22.707Z,15.80
2022-10-22T08:57:18.306Z,16.20
2022-10-22T09:00:07.539Z,16.20
2022-10-22T09:03:05.465Z,16.20
2022-10-22T09:06:00.545Z,16.10
2022-10-22T09:08:49.940Z,16.30
2022-10-22T09:11:39.295Z,16.30
2022-10-22T09:14:27.631Z,16.60
2022-10-22T09:17:21.067Z,16.40
2022-10-22T09:20:13.407Z,16.40
2022-10-22T09:23:06.413Z,16.20
2022-10-22T09:25:58.498Z,16.60
2022-10-22T09:28:50.816Z,16.30
2022-10-22T09:31:39.345Z,16.00
2022-10-22T09:34:27.325Z,16.40
2022-10-22T09:37:17.207Z,16.50
2022-10-22T09:40:09.617Z,16.50
2022-10-22T09:42:58.497Z,16.50
2022-10-22T09:45:47.058Z,16.40
2022-10-22T09:48:38.234Z,16.60
2022-10-22T09:51:29.579Z,16.70
2022-10-22T09:54:21.606Z,16.70
2022-10-22T09:57:18.057Z,16.80
2022-10-22T10:00:09.526Z,17.00
2022-10-22T10:02:58.402Z,17.20
2022-10-22T10:05:48.084Z,16.80
2022-10-22T10:08:36.526Z,16.80
2022-10-22T10:11:30.660Z,16.80
2022-10-22T10:14:22.787Z,16.60
2022-10-22T10:17:20.688Z,17.10
2022-10-22T10:20:18.207Z,16.90
2022-10-22T10:23:10.575Z,16.90
2022-10-22T10:26:02.709Z,17.00
2022-10-22T10:28:56.172Z,17.10
2022-10-22T10:31:51.548Z,17.00
2022-10-22T10:34:45.270Z,16.80
2022-10-22T10:37:36.072Z,16.70
2022-10-22T10:40:27.849Z,16.50
2022-10-22T10:43:26.869Z,17.60
2022-10-22T10:46:18.977Z,16.60
2022-10-22T10:49:09.861Z,16.60
2022-10-22T10:52:03.110Z,16.70
2022-10-22T10:54:55.861Z,17.20
2022-10-22T10:57:48.593Z,16.30
2022-10-22T11:00:47.188Z,16.80
2022-10-22T11:03:58.829Z,16.50
2022-10-22T11:06:46.744Z,16.30
2022-10-22T11:09:44.221Z,15.90
2022-10-22T11:12:34.855Z,16.80
2022-10-22T11:15:30.722Z,16.60
2022-10-22T11:18:28.197Z,16.90
2022-10-22T11:21:21.989Z,17.00
2022-10-22T11:24:14.416Z,17.10
2022-10-22T11:27:07.831Z,17.20
2022-10-22T11:30:01.206Z,17.70
2022-10-22T11:32:50.161Z,17.50
2022-10-22T11:35:40.144Z,17.50
2022-10-22T11:38:32.844Z,17.40
2022-10-22T11:41:27.764Z,17.70
2022-10-22T11:44:23.463Z,18.70
2022-10-22T11:47:18.578Z,18.10
2022-10-22T11:50:25.517Z,18.20
2022-10-22T11:53:19.177Z,18.50
2022-10-22T11:56:21.508Z,18.60
2022-10-22T11:59:30.204Z,18.40
2022-10-22T12:02:41.487Z,18.50
2022-10-22T12:05:38.787Z,18.20
2022-10-22T12:08:28.319Z,18.70
2022-10-22T12:11:17.916Z,18.90
2022-10-22T12:14:16.036Z,18.90
2022-10-22T12:17:07.219Z,19.30
2022-10-22T12:20:02.684Z,18.70
2022-10-22T12:22:50.999Z,19.00
2022-10-22T12:25:42.694Z,18.70
2022-10-22T12:28:30.900Z,19.00
2022-10-22T12:31:19.260Z,19.00
2022-10-22T12:34:07.050Z,18.60
2022-10-22T12:36:55.282Z,18.70
2022-10-22T12:39:44.096Z,18.80
2022-10-22T12:42:33.010Z,18.10
2022-10-22T12:45:21.136Z,18.10
2022-10-22T12:48:14.955Z,18.20
2022-10-22T12:51:04.373Z,17.70
2022-10-22T12:53:54.635Z,17.70
2022-10-22T12:56:49.309Z,17.90
2022-10-22T12:59:39.408Z,17.90
2022-10-22T13:02:30.586Z,19.60
2022-10-22T13:05:24.263Z,18.70
2022-10-22T13:08:20.986Z,18.40
2022-10-22T13:11:10.073Z,17.90
2022-10-22T13:14:04.830Z,18.30
2022-10-22T13:17:06.815Z,18.60
2022-10-22T13:20:02.262Z,18.80
2022-10-22T13:23:00.609Z,19.00
2022-10-22T13:25:58.081Z,19.50
2022-10-22T13:28:51.925Z,19.60
2022-10-22T13:31:46.261Z,19.80
2022-10-22T13:34:36.483Z,19.40
2022-10-22T13:37:24.271Z,19.10
2022-10-22T13:40:15.381Z,19.40
2022-10-22T13:43:04.817Z,18.90
2022-10-22T13:45:55.383Z,18.60
2022-10-22T13:48:43.132Z,18.60
2022-10-22T13:51:35.041Z,19.80
2022-10-22T13:54:28.926Z,19.60
2022-10-22T13:57:19.843Z,20.40
2022-10-22T14:00:08.708Z,20.30
2022-10-22T14:03:00.236Z,20.30
2022-10-22T14:05:49.118Z,19.60
2022-10-22T14:08:38.661Z,19.50
2022-10-22T14:11:31.294Z,18.80
2022-10-22T14:14:19.345Z,19.30
2022-10-22T14:17:07.164Z,20.30
2022-10-22T14:19:55.581Z,20.10
2022-10-22T14:22:43.066Z,18.00
2022-10-22T14:25:32.899Z,20.40
2022-10-22T14:28:20.966Z,20.70
2022-10-22T14:31:15.889Z,20.30
2022-10-22T14:34:06.518Z,20.30
2022-10-22T14:36:54.164Z,19.80
2022-10-22T14:39:42.635Z,19.60
2022-10-22T14:42:43.210Z,19.20
2022-10-22T14:45:32.938Z,19.00
2022-10-22T14:48:26.112Z,18.30
2022-10-22T14:51:24.314Z,17.90
2022-10-22T14:54:12.316Z,18.20
2022-10-22T14:57:02.107Z,18.70
2022-10-22T14:59:55.084Z,17.60
2022-10-22T15:02:44.235Z,17.70
2022-10-22T15:05:32.532Z,18.00
2022-10-22T15:08:24.669Z,18.50
2022-10-22T15:11:13.191Z,18.90
2022-10-22T15:14:03.694Z,17.80
2022-10-22T15:16:55.674Z,17.80
2022-10-22T15:19:43.700Z,17.40
2022-10-22T15:22:35.461Z,17.80
2022-10-22T15:25:24.212Z,17.60
2022-10-22T15:28:14.670Z,17.50
2022-10-22T15:31:05.402Z,17.50
2022-10-22T15:33:59.453Z,17.00
2022-10-22T15:36:53.098Z,17.60
2022-10-22T15:39:46.790Z,18.20
2022-10-22T15:42:35.340Z,16.70
2022-10-22T15:45:25.248Z,16.30
2022-10-22T15:48:16.777Z,16.60
2022-10-22T15:51:10.795Z,15.90
2022-10-22T15:54:03.532Z,17.10
2022-10-22T15:56:57.376Z,16.70
2022-10-22T15:59:52.140Z,16.90
2022-10-22T16:02:40.285Z,16.20
2022-10-22T16:05:29.089Z,16.80
2022-10-22T16:08:24.314Z,17.00
2022-10-22T16:11:16.769Z,16.70
2022-10-22T16:14:04.650Z,16.60
2022-10-22T16:16:58.529Z,16.70
2022-10-22T16:19:46.395Z,16.50
2022-10-22T16:22:36.663Z,17.70
2022-10-22T16:25:26.461Z,15.10
2022-10-22T16:28:19.496Z,17.30
2022-10-22T16:31:13.237Z,16.10
2022-10-22T16:34:02.962Z,15.90
2022-10-22T16:36:57.407Z,15.90
2022-10-22T16:39:50.481Z,15.80
2022-10-22T16:42:50.287Z,15.60
2022-10-22T16:45:42.359Z,15.60
2022-10-22T16:48:30.491Z,15.40
2022-10-22T16:51:20.713Z,15.20
2022-10-22T16:54:12.361Z,15.40
2022-10-22T16:57:04.136Z,15.40
2022-10-22T16:59:58.502Z,15.30
2022-10-22T17:02:49.740Z,16.30
2022-10-22T17:05:44.794Z,15.30
2022-10-22T17:08:35.651Z,16.20
2022-10-22T17:11:28.207Z,15.20
2022-10-22T17:14:22.502Z,15.20
2022-10-22T17:17:17.471Z,15.20
2022-10-22T17:20:09.996Z,14.60
2022-10-22T17:23:01.058Z,14.70
2022-10-22T17:25:50.203Z,15.10
2022-10-22T17:28:43.142Z,15.00
2022-10-22T17:31:32.761Z,15.00
2022-10-22T17:34:25.452Z,13.30
2022-10-22T17:37:16.557Z,14.30
2022-10-22T17:40:04.980Z,17.30
2022-10-22T17:42:52.749Z,14.90
2022-10-22T17:45:41.809Z,14.70
2022-10-22T17:48:36.596Z,15.30
2022-10-22T17:51:29.140Z,15.40
2022-10-22T17:54:20.823Z,15.20
2022-10-22T17:57:17.835Z,14.80
2022-10-22T18:00:11.895Z,14.60
2022-10-22T18:03:10.819Z,14.90
2022-10-22T18:06:06.306Z,14.60
2022-10-22T18:08:58.975Z,14.50
2022-10-22T18:11:48.829Z,14.50
2022-10-22T18:14:36.603Z,14.90
2022-10-22T18:17:29.993Z,17.90
2022-10-22T18:20:18.516Z,14.30
2022-10-22T18:23:07.252Z,14.60
2022-10-22T18:26:00.143Z,14.20
2022-10-22T18:28:50.384Z,14.30
2022-10-22T18:31:43.761Z,14.10
2022-10-22T18:34:32.612Z,14.20
2022-10-22T18:37:24.884Z,14.20
2022-10-22T18:40:15.670Z,14.10
2022-10-22T18:43:05.078Z,14.10
2022-10-22T18:45:53.234Z,13.50
2022-10-22T18:48:47.633Z,14.50
2022-10-22T18:51:36.484Z,14.40
2022-10-22T18:54:29.493Z,14.00
2022-10-22T18:57:17.594Z,13.40
2022-10-22T19:00:07.772Z,14.20
2022-10-22T19:02:56.183Z,14.20
2022-10-22T19:05:48.272Z,13.90
2022-10-22T19:08:39.743Z,13.90
2022-10-22T19:11:30.135Z,13.90
2022-10-22T19:14:22.294Z,13.80
2022-10-22T19:17:19.094Z,13.80
2022-10-22T19:20:08.010Z,13.70
2022-10-22T19:22:58.865Z,13.60
2022-10-22T19:25:48.196Z,14.00
2022-10-22T19:28:43.880Z,14.10
2022-10-22T19:31:38.489Z,14.30
2022-10-22T19:34:30.054Z,13.80
2022-10-22T19:37:23.292Z,13.60
2022-10-22T19:40:20.093Z,13.70
2022-10-22T19:43:18.884Z,13.70
2022-10-22T19:46:08.482Z,13.60
2022-10-22T19:49:02.903Z,13.60
2022-10-22T19:51:51.494Z,13.60
2022-10-22T19:54:46.272Z,13.50
2022-10-22T19:57:38.816Z,13.60
2022-10-22T20:00:29.549Z,13.50
2022-10-22T20:03:18.952Z,13.70
2022-10-22T20:06:16.856Z,13.40
2022-10-22T20:09:09.589Z,12.30
2022-10-22T20:11:58.848Z,13.70
2022-10-22T20:14:47.890Z,13.40
2022-10-22T20:17:42.201Z,12.90
2022-10-22T20:20:32.289Z,13.40
2022-10-22T20:23:26.844Z,13.60
2022-10-22T20:26:17.825Z,13.30
2022-10-22T20:29:19.207Z,13.30
2022-10-22T20:32:09.059Z,15.00
2022-10-22T20:35:06.770Z,13.10
2022-10-22T20:38:02.079Z,13.10
2022-10-22T20:40:59.497Z,13.00
2022-10-22T20:43:54.091Z,14.70
2022-10-22T20:46:43.919Z,13.00
2022-10-22T20:49:33.053Z,13.00
2022-10-22T20:52:21.740Z,12.90
2022-10-22T20:58:06.376Z,12.90
2022-10-22T21:00:58.036Z,12.80
2022-10-22T21:03:49.461Z,12.90
2022-10-22T21:06:44.014Z,12.40
2022-10-22T21:09:34.837Z,13.40
2022-10-22T21:12:40.631Z,13.10
2022-10-22T21:15:32.365Z,12.90
2022-10-22T21:18:20.012Z,12.80
2022-10-22T21:21:10.921Z,12.50
2022-10-22T21:24:06.174Z,13.30
2022-10-22T21:26:58.356Z,12.80
2022-10-22T21:29:46.831Z,12.80
2022-10-22T21:32:35.533Z,12.80
2022-10-22T21:35:24.307Z,13.00
2022-10-22T21:38:24.134Z,12.90
2022-10-22T21:41:15.657Z,13.90
2022-10-22T21:44:06.575Z,12.30
2022-10-22T21:46:56.092Z,12.80
2022-10-22T21:49:49.209Z,12.90
2022-10-22T21:52:38.933Z,12.60
2022-10-22T21:55:30.850Z,12.90
2022-10-22T21:58:19.041Z,12.90
2022-10-22T22:01:11.290Z,13.30
2022-10-22T22:04:02.153Z,13.10
2022-10-22T22:06:53.351Z,13.20
2022-10-22T22:09:43.041Z,13.00
2022-10-22T22:12:38.507Z,13.10
2022-10-22T22:15:36.924Z,12.70
2022-10-22T22:18:26.971Z,12.80
2022-10-22T22:21:19.471Z,12.70
2022-10-22T22:24:15.422Z,12.70
2022-10-22T22:27:08.550Z,12.30
2022-10-22T22:30:01.151Z,12.90
2022-10-22T22:32:53.566Z,12.60
2022-10-22T22:35:44.112Z,12.80
2022-10-22T22:38:38.288Z,12.60
2022-10-22T22:41:26.075Z,12.70
2022-10-22T22:44:17.288Z,12.70
2022-10-22T22:47:11.368Z,12.50
2022-10-22T22:50:01.669Z,12.50
2022-10-22T22:52:50.413Z,12.40
2022-10-22T22:55:42.327Z,12.40
2022-10-22T22:58:34.694Z,12.10
2022-10-22T23:01:26.039Z,12.50
2022-10-22T23:04:22.842Z,12.30
2022-10-22T23:07:15.399Z,11.70
2022-10-22T23:10:06.153Z,12.20
2022-10-22T23:12:56.614Z,11.50
2022-10-22T23:15:53.766Z,11.80
2022-10-22T23:18:44.105Z,12.20
2022-10-22T23:21:36.547Z,12.20
2022-10-22T23:24:28.704Z,12.10
2022-10-22T23:27:22.124Z,12.10
2022-10-22T23:30:19.535Z,12.10
2022-10-22T23:33:09.496Z,12.10
2022-10-22T23:35:58.297Z,12.10
2022-10-22T23:38:47.771Z,10.90
2022-10-22T23:41:35.779Z,12.00
2022-10-22T23:44:27.543Z,12.00
2022-10-22T23:47:22.264Z,12.10
2022-10-22T23:50:16.472Z,12.00
2022-10-22T23:53:04.393Z,11.40
2022-10-22T23:55:57.187Z,11.90
2022-10-22T23:58:48.568Z,11.90
